Flight Track Log - Related Links

Times and Time Zones

All times are in EDT time to prevent confusion due to time zone crossing. See the FLG3824 flight status page for this flight to view local times or setup timezone preferences in your user account.

Time Position Orientation Groundspeed Altitude Reporting Facility
EDT Latitude Longitude Course Direction KTS MPH feet Rate Location/Type
Mon 05:27:25 PM 42.2039 -83.3697 178° South 150 173 1,300  Level Cleveland Center
Mon 05:28:02 PM 42.1744 -83.3683 178° South 187 215 2,400 1,898 Climbing Cleveland Center
Mon 05:29:03 PM 42.1142 -83.3625 176° South 240 276 4,400 1,853 Climbing Cleveland Center
Mon 05:29:10 PM 42.1097 -83.3608 164° South 223 257 4,500 2,418 Climbing Cleveland Center
Mon 05:30:10 PM 42.0608 -83.2933 134° Southeast 295 339 7,100 2,323 Climbing Cleveland Center
Mon 05:30:12 PM 42.0583 -83.3033 251° West 276 318 6,900 2,509 Descending Cleveland Center
Mon 05:31:05 PM 42.0911 -83.2017 66° East 300 345 9,400 2,419 Climbing Cleveland Center
Mon 05:31:14 PM 42.0908 -83.1964 94° East 307 353 9,400 1,183 Level Cleveland Center
Mon 05:32:16 PM 42.1308 -83.0928 62° Northeast 313 360 10,800 1,500 Climbing Cleveland Center
Mon 05:33:18 PM 42.1853 -82.9500 63° Northeast 360 414 12,500 1,065 Climbing Cleveland Center
Mon 05:34:20 PM 42.2397 -82.8328 58° Northeast 372 428 13,000 240 Climbing Cleveland Center
Mon 05:35:23 PM 42.3142 -82.7339 44° Northeast 378 435 13,000 672 Level Cleveland Center
Mon 05:36:25 PM 42.3442 -82.5906 74° East 395 455 14,400 1,210 Climbing Cleveland Center
Mon 05:37:27 PM 42.3667 -82.4425 78° East 402 463 15,500 1,113 Climbing Cleveland Center
Mon 05:38:29 PM 42.3594 -82.2558 93° East 415 478 16,700 1,016 Climbing Cleveland Center
Mon 05:39:31 PM 42.3547 -82.1178 93° East 422 486 17,600 968 Climbing Cleveland Center
Mon 05:40:33 PM 42.3456 -81.9342 94° East 417 480 18,700 1,016 Climbing Cleveland Center
Mon 05:41:35 PM 42.3394 -81.7742 93° East 421 484 19,700 968 Climbing Cleveland Center
Mon 05:42:37 PM 42.3322 -81.6144 93° East 421 484 20,700 968 Climbing Cleveland Center
Mon 05:43:39 PM 42.3247 -81.4550 94° East 421 484 21,700 968 Climbing Cleveland Center
Mon 05:44:41 PM 42.3167 -81.2986 94° East 417 480 22,700 919 Climbing Cleveland Center
Mon 05:45:43 PM 42.3089 -81.1422 94° East 414 476 23,600 823 Climbing Cleveland Center
Mon 05:46:45 PM 42.3006 -80.9839 94° East 417 480 24,400 864 Climbing Cleveland Center
Mon 05:47:48 PM 42.2906 -80.8000 94° East 417 480 25,400 720 Climbing Cleveland Center
Mon 05:48:50 PM 42.2858 -80.6425 92° East 416 479 25,900 484 Climbing Cleveland Center
Mon 05:49:52 PM 42.3025 -80.4817 82° East 426 490 26,400 484 Climbing Cleveland Center
Mon 05:50:54 PM 42.3181 -80.3208 82° East 430 495 26,900 290 Climbing Cleveland Center
Mon 05:51:56 PM 42.3331 -80.1586 83° East 432 497 27,000 48 Climbing Cleveland Center
Mon 05:52:58 PM 42.3506 -79.9725 83° East 441 507 27,000  Level Cleveland Center
Mon 05:54:00 PM 42.3644 -79.8200 83° East 447 514 27,000  Level Cleveland Center
Mon 05:55:02 PM 42.3794 -79.6547 83° East 445 512 27,000  Level Cleveland Center
Mon 05:56:04 PM 42.3969 -79.4536 83° East 450 518 27,000  Level Cleveland Center
Mon 05:57:06 PM 42.4114 -79.2861 83° East 452 520 27,000  Level Cleveland Center
Mon 05:59:10 PM 42.4392 -78.9522 83° East 448 516 27,000  Level Cleveland Center
Mon 06:00:13 PM 42.4544 -78.7625 84° East 452 520 27,000  Level Cleveland Center
Mon 06:01:15 PM 42.4681 -78.5944 84° East 450 518 27,000  Level Cleveland Center
Mon 06:02:17 PM 42.4811 -78.4286 84° East 446 513 27,000  Level Cleveland Center
Mon 06:03:19 PM 42.4944 -78.2606 84° East 449 517 27,000  Level Cleveland Center
Mon 06:04:21 PM 42.5072 -78.0950 84° East 446 513 27,000  Level Cleveland Center
Mon 06:05:23 PM 42.5219 -77.8947 84° East 448 516 27,000  Level Cleveland Center
Mon 06:06:25 PM 42.5325 -77.7456 84° East 446 513 27,000  Level Cleveland Center
Mon 06:07:27 PM 42.5447 -77.5792 84° East 445 512 27,000  Level Cleveland Center
Mon 06:08:29 PM 42.5569 -77.4072 84° East 444 511 27,000  Level Cleveland Center
Mon 06:09:31 PM 42.5708 -77.2092 84° East 444 511 27,000  Level Cleveland Center
Mon 06:10:33 PM 42.5808 -77.0431 85° East 444 511 27,000  Level Cleveland Center
Mon 06:11:35 PM 42.5922 -76.8775 85° East 443 510 27,000  Level Cleveland Center
Mon 06:12:32 PM 42.6031 -76.7122 85° East 442 509 27,000  Level Boston Center
Mon 06:13:32 PM 42.6139 -76.5461 85° East 444 511 27,000  Level Boston Center
Mon 06:14:33 PM 42.6231 -76.3803 86° East 443 510 27,000  Level Boston Center
Mon 06:15:33 PM 42.6333 -76.2203 85° East 444 511 27,000  Level Boston Center
Mon 06:16:37 PM 42.6433 -76.0544 85° East 444 511 27,000  Level Boston Center
Mon 06:17:38 PM 42.6525 -75.8889 86° East 445 512 27,000  Level Boston Center
Mon 06:18:38 PM 42.6606 -75.7211 86° East 446 513 27,000 -927 Level Boston Center
Mon 06:19:41 PM 42.6714 -75.5211 86° East 447 514 25,100 -2,081 Descending Boston Center
Mon 06:20:42 PM 42.6794 -75.3564 86° East 444 511 22,700 -2,380 Descending Boston Center
Mon 06:21:42 PM 42.6872 -75.1942 86° East 438 504 20,300 -2,323 Descending Boston Center
Mon 06:22:46 PM 42.6961 -75.0294 86° East 440 506 17,900 -2,455 Descending Boston Center
Mon 06:23:10 PM 42.6967 -74.9456 89° East 423 487 16,700 -2,164 Descending Boston Center
Mon 06:23:47 PM 42.7036 -74.8781 82° East 408 470 15,700 -1,856 Descending Boston Center
Mon 06:24:47 PM 42.6897 -74.7147 97° East 379 436 13,700 -1,835 Descending Boston Center
Mon 06:25:48 PM 42.6703 -74.5800 101° East 366 421 12,000 -1,536 Descending Boston Center
Mon 06:26:52 PM 42.6450 -74.4400 104° East 349 402 10,500 -1,343 Descending Boston Center
Mon 06:26:55 PM 42.6428 -74.4419 213° Southwest 348 400 10,500 -1,082 Level Boston Center
Mon 06:27:53 PM 42.6156 -74.3356 109° East 294 338 9,400 -1,180 Descending Boston Center
Mon 06:27:56 PM 42.6108 -74.3261 124° Southeast 279 321 9,300 -1,500 Descending Boston Center
Mon 06:28:53 PM 42.5961 -74.2331 102° East 281 323 7,900 -1,500 Descending Boston Center
Mon 06:28:56 PM 42.5931 -74.2267 123° Southeast 274 315 7,800 -1,574 Descending Boston Center
Mon 06:29:54 PM 42.5778 -74.1228 101° East 280 322 6,300 -1,562 Descending Boston Center
Mon 06:30:09 PM 42.5736 -74.1008 104° East 278 320 5,900 -1,406 Descending Boston Center
Mon 06:30:58 PM 42.5703 -74.0219 93° East 274 315 4,800 -1,377 Descending Boston Center
Mon 06:31:10 PM 42.5733 -73.9989 80° East 275 316 4,500 -1,000 Descending Boston Center
Mon 06:31:58 PM 42.5928 -73.9283 69° East 260 299 3,800 -787 Descending Boston Center
Mon 06:32:11 PM 42.5961 -73.9108 75° East 247 284 3,700 -787 Descending Boston Center
Mon 06:32:59 PM 42.6144 -73.8489 68° East 210 242 3,000 -716 Descending Boston Center
Mon 06:33:18 PM 42.6203 -73.8375 55° Northeast 179 206 2,900 -750 Descending Boston Center
Mon 06:34:03 PM 42.6550 -73.8089 31° Northeast 184 212 2,200 -1,000 Descending Boston Center
Mon 06:34:24 PM 42.6719 -73.8025 15° North 171 197 1,800 -1,100 Descending Boston Center
Mon 06:35:03 PM 42.7042 -73.8025 360° North 165 190 1,100 -900 Descending Boston Center
Mon 06:35:24 PM 42.7144 -73.8053 349° North 142 163 900 -787 Descending Boston Center
Mon 06:36:04 PM 42.7419 -73.8061 359° North 143 165 300 -346 Descending Boston Center
Mon 06:37:08 PM 42.7525 -73.8072 356° North 31 36 300  Level Boston Center
Mon 06:38:08 PM 42.7483 -73.8086 194° South 14 16 300  Level Boston Center
Mon 06:39:09 PM 42.7469 -73.8111 233° Southwest 12 14 300  Level Boston Center

Login

Don't have an account? Register now (free) for customized features, flight alerts, and more!